createdAt,value
2022-08-17T00:01:51.458Z,67.87
2022-08-17T00:04:20.739Z,67.68
2022-08-17T00:06:49.606Z,67.75
2022-08-17T00:09:18.648Z,67.70
2022-08-17T00:12:41.040Z,67.57
2022-08-17T00:14:36.724Z,67.87
2022-08-17T00:17:06.447Z,67.95
2022-08-17T00:19:34.103Z,68.02
2022-08-17T00:22:35.265Z,67.95
2022-08-17T00:24:50.549Z,68.04
2022-08-17T00:27:19.056Z,68.15
2022-08-17T00:29:46.246Z,68.22
2022-08-17T00:33:23.146Z,68.56
2022-08-17T00:35:06.810Z,68.66
2022-08-17T00:37:33.972Z,68.59
2022-08-17T00:40:01.212Z,68.82
2022-08-17T00:42:31.121Z,68.77
2022-08-17T00:44:59.139Z,68.86
2022-08-17T00:47:26.496Z,68.90
2022-08-17T00:49:54.082Z,68.79
2022-08-17T00:52:32.408Z,69.04
2022-08-17T00:55:01.196Z,69.25
2022-08-17T00:57:35.124Z,69.40
2022-08-17T01:00:33.651Z,70.00
2022-08-17T01:03:11.915Z,69.65
2022-08-17T01:05:42.252Z,69.66
2022-08-17T01:08:15.252Z,69.50
2022-08-17T01:10:57.438Z,69.78
2022-08-17T01:13:41.160Z,69.92
2022-08-17T01:16:26.620Z,70.27
2022-08-17T01:18:59.347Z,70.24
2022-08-17T01:21:30.603Z,70.42
2022-08-17T01:24:00.035Z,70.03
2022-08-17T01:26:29.587Z,70.09
2022-08-17T01:28:56.916Z,70.01
2022-08-17T01:31:30.303Z,69.81
2022-08-17T01:34:02.184Z,69.99
2022-08-17T01:36:29.496Z,70.15
2022-08-17T01:38:56.718Z,70.18
2022-08-17T01:41:24.898Z,69.94
2022-08-17T01:44:01.345Z,70.05
2022-08-17T01:46:35.149Z,70.08
2022-08-17T01:49:08.652Z,70.10
2022-08-17T01:51:36.240Z,70.11
2022-08-17T01:54:13.531Z,70.39
2022-08-17T01:56:48.367Z,70.45
2022-08-17T01:59:18.393Z,70.25
2022-08-17T02:01:46.873Z,70.26
2022-08-17T02:04:16.056Z,70.46
2022-08-17T02:06:53.537Z,70.60
2022-08-17T02:09:25.666Z,70.60
2022-08-17T02:11:59.790Z,70.74
2022-08-17T02:14:46.948Z,71.06
2022-08-17T02:17:14.088Z,70.82
2022-08-17T02:19:41.351Z,70.96
2022-08-17T02:22:09.145Z,71.14
2022-08-17T02:25:00.159Z,71.09
2022-08-17T02:27:26.275Z,71.26
2022-08-17T02:29:53.535Z,71.26
2022-08-17T02:32:27.922Z,71.13
2022-08-17T02:34:57.932Z,71.21
2022-08-17T02:37:27.581Z,71.27
2022-08-17T02:39:57.151Z,71.43
2022-08-17T02:42:34.032Z,71.74
2022-08-17T02:45:04.278Z,71.63
2022-08-17T02:47:31.396Z,71.85
2022-08-17T02:49:58.589Z,71.74
2022-08-17T02:52:43.139Z,72.08
2022-08-17T02:55:29.917Z,72.17
2022-08-17T02:57:57.403Z,72.19
2022-08-17T03:00:36.366Z,72.32
2022-08-17T03:03:06.111Z,72.33
2022-08-17T03:05:36.205Z,72.50
2022-08-17T03:08:07.017Z,72.42
2022-08-17T03:10:39.056Z,72.80
2022-08-17T03:13:06.191Z,72.66
2022-08-17T03:15:35.072Z,72.71
2022-08-17T03:18:03.762Z,72.78
2022-08-17T03:20:33.057Z,72.63
2022-08-17T03:23:02.808Z,72.64
2022-08-17T03:25:35.415Z,72.85
2022-08-17T03:28:04.757Z,72.74
2022-08-17T03:30:32.952Z,72.77
2022-08-17T03:33:04.830Z,72.85
2022-08-17T03:35:36.352Z,72.57
2022-08-17T03:38:04.585Z,72.72
2022-08-17T03:40:55.559Z,72.56
2022-08-17T03:43:23.218Z,72.48
2022-08-17T03:46:10.837Z,72.34
2022-08-17T03:49:13.516Z,72.37
2022-08-17T03:51:59.595Z,72.12
2022-08-17T03:54:45.694Z,72.21
2022-08-17T03:57:13.877Z,72.16
2022-08-17T03:59:41.344Z,72.26
2022-08-17T04:02:13.480Z,72.48
2022-08-17T04:04:40.755Z,72.36
2022-08-17T04:07:08.433Z,72.25
2022-08-17T04:09:36.620Z,72.49
2022-08-17T04:12:05.329Z,72.42
2022-08-17T04:14:51.396Z,72.57
2022-08-17T04:17:27.946Z,72.49
2022-08-17T04:19:55.866Z,72.62
2022-08-17T04:22:32.622Z,72.90
2022-08-17T04:25:09.960Z,73.02
2022-08-17T04:27:37.142Z,72.82
2022-08-17T04:30:07.264Z,72.84
2022-08-17T04:33:10.467Z,72.95
2022-08-17T04:35:41.332Z,73.18
2022-08-17T04:38:18.905Z,73.38
2022-08-17T04:41:05.085Z,73.69
2022-08-17T04:43:35.077Z,73.69
2022-08-17T04:46:08.805Z,74.04
2022-08-17T04:48:53.141Z,74.18
2022-08-17T04:51:23.732Z,74.10
2022-08-17T04:54:04.293Z,74.30
2022-08-17T04:56:32.739Z,74.30
2022-08-17T04:59:05.219Z,73.90
2022-08-17T05:01:36.179Z,73.80
2022-08-17T05:04:32.841Z,74.19
2022-08-17T05:06:57.618Z,73.90
2022-08-17T05:09:24.670Z,73.92
2022-08-17T05:11:51.818Z,73.74
2022-08-17T05:14:18.981Z,73.40
2022-08-17T05:16:49.225Z,73.61
2022-08-17T05:19:16.335Z,73.12
2022-08-17T05:21:43.506Z,73.27
2022-08-17T05:24:36.074Z,72.85
2022-08-17T05:27:02.604Z,73.49
2022-08-17T05:29:35.466Z,73.90
2022-08-17T05:32:38.322Z,74.52
2022-08-17T05:35:00.005Z,74.71
2022-08-17T05:37:27.091Z,75.86
2022-08-17T05:39:54.516Z,75.83
2022-08-17T05:42:22.475Z,76.31
2022-08-17T05:44:49.668Z,76.73
2022-08-17T05:47:18.343Z,77.32
2022-08-17T05:49:45.532Z,78.34
2022-08-17T05:52:50.098Z,79.10
2022-08-17T05:55:39.967Z,79.86
2022-08-17T05:58:52.748Z,80.07
2022-08-17T06:01:42.954Z,81.25
2022-08-17T06:04:34.721Z,81.77
2022-08-17T06:07:30.349Z,82.85
2022-08-17T06:10:16.883Z,83.59
2022-08-17T06:13:17.837Z,83.71
2022-08-17T06:16:28.221Z,84.58
2022-08-17T06:19:03.183Z,85.31
2022-08-17T06:21:38.028Z,85.32
2022-08-17T06:24:20.473Z,85.75
2022-08-17T06:26:48.821Z,87.00
2022-08-17T06:29:41.147Z,86.17
2022-08-17T06:32:12.862Z,86.09
2022-08-17T06:34:45.031Z,86.49
2022-08-17T06:37:48.759Z,87.10
2022-08-17T06:40:38.784Z,87.41
2022-08-17T06:43:32.661Z,87.94
2022-08-17T06:46:12.056Z,88.04
2022-08-17T06:49:07.382Z,87.70
2022-08-17T06:51:43.770Z,87.94
2022-08-17T06:54:33.976Z,88.36
2022-08-17T06:57:19.642Z,88.40
2022-08-17T06:59:58.648Z,87.94
2022-08-17T07:03:02.278Z,88.19
2022-08-17T07:05:42.888Z,88.19
2022-08-17T07:08:35.195Z,88.03
2022-08-17T07:11:13.086Z,88.07
2022-08-17T07:14:17.532Z,88.39
2022-08-17T07:16:51.696Z,88.47
2022-08-17T07:19:22.563Z,88.85
2022-08-17T07:22:25.546Z,88.92
2022-08-17T07:24:59.628Z,88.66
2022-08-17T07:27:33.788Z,88.58
2022-08-17T07:30:19.945Z,88.89
2022-08-17T07:33:13.654Z,88.62
2022-08-17T07:35:44.952Z,88.57
2022-08-17T07:38:28.441Z,88.04
2022-08-17T07:41:02.318Z,88.35
2022-08-17T07:43:41.195Z,88.51
2022-08-17T07:46:33.889Z,88.72
2022-08-17T07:49:00.875Z,88.16
2022-08-17T07:51:38.047Z,88.52
2022-08-17T07:54:23.280Z,87.75
2022-08-17T07:57:13.633Z,87.12
2022-08-17T08:00:03.448Z,86.65
2022-08-17T08:02:45.423Z,86.66
2022-08-17T08:05:48.811Z,86.21
2022-08-17T08:08:42.229Z,85.22
2022-08-17T08:11:15.467Z,85.27
2022-08-17T08:13:45.541Z,85.61
2022-08-17T08:16:29.578Z,86.04
2022-08-17T08:19:01.836Z,85.52
2022-08-17T08:21:59.999Z,84.37
2022-08-17T08:25:11.295Z,83.86
2022-08-17T08:28:16.722Z,83.56
2022-08-17T08:30:52.701Z,84.11
2022-08-17T08:33:40.206Z,84.62
2022-08-17T08:37:12.719Z,84.34
2022-08-17T08:39:53.706Z,84.48
2022-08-17T08:42:51.539Z,84.47
2022-08-17T08:45:32.855Z,82.55
2022-08-17T08:48:46.302Z,81.73
2022-08-17T08:51:50.939Z,80.36
2022-08-17T08:54:47.997Z,79.11
2022-08-17T08:57:34.573Z,80.05
2022-08-17T09:00:10.883Z,78.27
2022-08-17T09:03:06.166Z,76.20
2022-08-17T09:05:52.484Z,76.33
2022-08-17T09:09:09.256Z,77.79
2022-08-17T09:12:04.992Z,76.69
2022-08-17T09:14:47.523Z,75.34
2022-08-17T09:19:03.007Z,76.32
2022-08-17T09:21:48.233Z,74.74
2022-08-17T09:24:32.783Z,73.91
2022-08-17T09:27:11.339Z,75.27
2022-08-17T09:29:47.884Z,75.03
2022-08-17T09:32:31.378Z,75.46
2022-08-17T09:35:11.956Z,74.65
2022-08-17T09:38:16.622Z,75.94
2022-08-17T09:41:06.428Z,77.32
2022-08-17T09:43:46.869Z,74.34
2022-08-17T09:46:24.968Z,72.31
2022-08-17T09:49:16.025Z,71.40
2022-08-17T09:51:55.054Z,71.09
2022-08-17T09:54:44.849Z,70.11
2022-08-17T09:57:42.118Z,71.03
2022-08-17T10:00:28.028Z,73.25
2022-08-17T10:03:29.140Z,73.52
2022-08-17T10:06:37.838Z,73.37
2022-08-17T10:09:13.094Z,72.56
2022-08-17T10:12:17.083Z,72.05
2022-08-17T10:15:15.569Z,72.26
2022-08-17T10:18:10.680Z,73.05
2022-08-17T10:21:14.193Z,74.23
2022-08-17T10:24:03.553Z,74.43
2022-08-17T10:26:40.553Z,75.29
2022-08-17T10:29:44.165Z,74.55
2022-08-17T10:32:35.360Z,74.19
2022-08-17T10:35:28.635Z,73.44
2022-08-17T10:38:08.515Z,73.16
2022-08-17T10:40:45.445Z,71.77
2022-08-17T10:44:28.547Z,71.94
2022-08-17T10:46:57.671Z,71.30
2022-08-17T10:49:29.618Z,70.19
2022-08-17T10:52:01.597Z,69.71
2022-08-17T10:54:38.695Z,72.17
2022-08-17T10:57:31.696Z,72.24
2022-08-17T11:00:00.740Z,71.20
2022-08-17T11:02:54.484Z,71.78
2022-08-17T11:05:53.868Z,73.14
2022-08-17T11:09:13.734Z,73.82
2022-08-17T11:12:00.303Z,75.42
2022-08-17T11:14:55.812Z,75.90
2022-08-17T11:17:41.480Z,76.36
2022-08-17T11:20:41.283Z,77.85
2022-08-17T11:23:50.350Z,77.18
2022-08-17T11:26:28.048Z,76.90
2022-08-17T11:29:09.581Z,77.73
2022-08-17T11:31:46.567Z,77.30
2022-08-17T11:34:21.187Z,77.07
2022-08-17T11:37:07.443Z,76.50
2022-08-17T11:40:15.210Z,77.23
2022-08-17T11:42:59.648Z,78.17
2022-08-17T11:45:51.007Z,78.82
2022-08-17T11:49:18.937Z,79.77
2022-08-17T11:52:01.357Z,79.35
2022-08-17T11:54:33.225Z,79.84
2022-08-17T11:57:26.728Z,80.62
2022-08-17T12:00:46.652Z,81.66
2022-08-17T12:03:43.221Z,81.83
2022-08-17T12:06:34.363Z,82.81
2022-08-17T12:09:12.772Z,82.83
2022-08-17T12:12:12.158Z,83.49
2022-08-17T12:15:10.470Z,84.18
2022-08-17T12:17:42.373Z,83.30
2022-08-17T12:20:15.541Z,83.18
2022-08-17T12:23:01.008Z,83.54
2022-08-17T12:25:42.935Z,83.63
2022-08-17T12:28:27.779Z,83.35
2022-08-17T12:31:04.128Z,83.57
2022-08-17T12:33:31.803Z,84.37
2022-08-17T12:36:08.522Z,84.23
2022-08-17T12:38:38.269Z,84.10
2022-08-17T12:41:27.748Z,84.55
2022-08-17T12:44:31.515Z,84.37
2022-08-17T12:47:19.457Z,85.01
2022-08-17T12:49:55.052Z,85.41
2022-08-17T12:52:29.242Z,85.44
2022-08-17T12:55:11.038Z,86.01
2022-08-17T12:57:38.001Z,85.44
2022-08-17T13:00:40.859Z,86.21
2022-08-17T13:03:26.435Z,86.43
2022-08-17T13:06:06.120Z,87.33
2022-08-17T13:08:43.199Z,87.62
2022-08-17T13:11:22.562Z,86.26
2022-08-17T13:13:56.749Z,85.41
2022-08-17T13:16:31.631Z,85.97
2022-08-17T13:19:40.590Z,86.39
2022-08-17T13:22:12.797Z,86.46
2022-08-17T13:24:53.271Z,86.61
2022-08-17T13:27:23.677Z,85.13
2022-08-17T13:29:59.567Z,84.26
2022-08-17T13:32:45.659Z,84.12
2022-08-17T13:35:32.226Z,85.24
2022-08-17T13:38:10.712Z,85.27
2022-08-17T13:40:52.775Z,85.23
2022-08-17T13:43:48.401Z,85.53
2022-08-17T13:46:22.937Z,84.72
2022-08-17T13:49:09.648Z,85.59
2022-08-17T13:51:44.593Z,85.74
2022-08-17T13:54:33.451Z,85.38
2022-08-17T13:57:03.943Z,85.06
2022-08-17T14:00:12.180Z,84.41
2022-08-17T14:02:39.230Z,83.93
2022-08-17T14:05:06.790Z,82.28
2022-08-17T14:07:39.409Z,82.38
2022-08-17T14:10:18.068Z,81.99
2022-08-17T14:12:45.665Z,82.96
2022-08-17T14:15:20.503Z,82.96
2022-08-17T14:17:49.196Z,84.17
2022-08-17T14:20:21.247Z,83.15
2022-08-17T14:22:53.168Z,81.03
2022-08-17T14:25:26.355Z,80.77
2022-08-17T14:27:54.645Z,80.82
2022-08-17T14:30:25.969Z,80.31
2022-08-17T14:32:55.128Z,80.13
2022-08-17T14:35:23.861Z,80.23
2022-08-17T14:37:52.845Z,80.09
2022-08-17T14:40:22.632Z,79.81
2022-08-17T14:42:51.496Z,79.26
2022-08-17T14:45:29.607Z,77.45
2022-08-17T14:48:07.578Z,76.74
2022-08-17T14:50:41.057Z,75.08
2022-08-17T14:53:11.465Z,73.36
2022-08-17T14:55:42.303Z,73.64
2022-08-17T14:58:09.534Z,72.73
2022-08-17T15:00:39.409Z,73.68
2022-08-17T15:03:06.681Z,73.27
2022-08-17T15:05:37.993Z,74.81
2022-08-17T15:08:06.483Z,72.37
2022-08-17T15:10:35.683Z,74.17
2022-08-17T15:13:03.663Z,74.90
2022-08-17T15:15:31.268Z,75.43
2022-08-17T15:17:59.779Z,76.44
2022-08-17T15:20:29.908Z,76.96
2022-08-17T15:22:59.343Z,76.56
2022-08-17T15:25:30.374Z,76.32
2022-08-17T15:27:59.404Z,75.56
2022-08-17T15:30:28.231Z,75.26
2022-08-17T15:32:58.472Z,76.54
2022-08-17T15:35:30.375Z,76.09
2022-08-17T15:38:06.142Z,76.63
2022-08-17T15:40:38.620Z,76.69
2022-08-17T15:43:11.272Z,76.51
2022-08-17T15:45:40.409Z,77.99
2022-08-17T15:48:08.894Z,79.25
2022-08-17T15:50:36.143Z,79.80
2022-08-17T15:53:04.859Z,79.33
2022-08-17T15:55:33.439Z,78.62
2022-08-17T15:58:01.079Z,76.63
2022-08-17T16:00:29.516Z,76.93
2022-08-17T16:03:45.508Z,76.92
2022-08-17T16:05:47.803Z,78.54
2022-08-17T16:08:20.152Z,79.00
2022-08-17T16:10:50.359Z,77.77
2022-08-17T16:13:19.438Z,77.09
2022-08-17T16:15:57.068Z,78.78
2022-08-17T16:18:31.566Z,77.39
2022-08-17T16:21:25.735Z,78.88
2022-08-17T16:24:01.343Z,78.38
2022-08-17T16:26:32.025Z,75.38
2022-08-17T16:29:03.574Z,75.42
2022-08-17T16:31:31.204Z,72.63
2022-08-17T16:34:17.371Z,73.53
2022-08-17T16:36:55.044Z,73.57
2022-08-17T16:39:28.945Z,72.09
2022-08-17T16:41:57.464Z,69.41
2022-08-17T16:44:27.435Z,68.43
2022-08-17T16:46:54.748Z,66.64
2022-08-17T16:49:35.865Z,68.23
2022-08-17T16:52:10.069Z,68.13
2022-08-17T16:54:43.610Z,66.51
2022-08-17T16:57:13.402Z,69.53
2022-08-17T16:59:42.707Z,69.88
2022-08-17T17:02:17.071Z,71.22
2022-08-17T17:05:09.272Z,69.60
2022-08-17T17:08:03.464Z,66.40
2022-08-17T17:10:45.734Z,68.96
2022-08-17T17:13:23.872Z,70.22
2022-08-17T17:16:21.753Z,71.58
2022-08-17T17:19:14.887Z,71.96
2022-08-17T17:22:21.709Z,72.33
2022-08-17T17:25:03.643Z,73.66
2022-08-17T17:27:53.210Z,74.23
2022-08-17T17:30:37.200Z,75.25
2022-08-17T17:33:13.295Z,75.65
2022-08-17T17:35:54.301Z,75.45
2022-08-17T17:38:32.456Z,75.82
2022-08-17T17:41:12.004Z,76.43
2022-08-17T17:43:41.207Z,76.64
2022-08-17T17:46:28.656Z,77.78
2022-08-17T17:48:58.077Z,77.70
2022-08-17T17:52:15.584Z,77.96
2022-08-17T17:55:18.712Z,78.47
2022-08-17T17:57:57.595Z,78.63
2022-08-17T18:00:44.538Z,77.93
2022-08-17T18:03:26.512Z,78.38
2022-08-17T18:06:18.628Z,78.29
2022-08-17T18:10:02.985Z,78.75
2022-08-17T18:12:57.012Z,78.89
2022-08-17T18:15:37.043Z,79.11
2022-08-17T18:18:17.163Z,79.48
2022-08-17T18:20:54.052Z,79.91
2022-08-17T18:23:27.919Z,80.04
2022-08-17T18:25:58.560Z,80.21
2022-08-17T18:28:43.948Z,80.60
2022-08-17T18:31:22.058Z,81.11
2022-08-17T18:33:54.680Z,80.67
2022-08-17T18:36:36.451Z,80.70
2022-08-17T18:39:19.041Z,81.31
2022-08-17T18:41:50.836Z,81.48
2022-08-17T18:44:30.252Z,81.79
2022-08-17T18:47:24.662Z,82.35
2022-08-17T18:50:15.161Z,81.93
2022-08-17T18:52:42.439Z,82.10
2022-08-17T18:55:24.881Z,82.45
2022-08-17T18:58:21.069Z,82.18
2022-08-17T19:00:51.888Z,82.71
2022-08-17T19:03:26.469Z,82.49
2022-08-17T19:06:15.128Z,82.53
2022-08-17T19:08:42.321Z,82.84
2022-08-17T19:11:32.104Z,82.77
2022-08-17T19:14:03.808Z,82.79
2022-08-17T19:17:19.239Z,83.17
2022-08-17T19:19:56.467Z,83.53
2022-08-17T19:22:51.847Z,83.64
2022-08-17T19:25:29.304Z,84.34
2022-08-17T19:28:43.798Z,84.34
2022-08-17T19:31:26.943Z,84.47
2022-08-17T19:33:56.277Z,84.70
2022-08-17T19:36:50.735Z,85.12
2022-08-17T19:39:55.936Z,85.07
2022-08-17T19:42:55.860Z,85.36
2022-08-17T19:46:09.125Z,85.53
2022-08-17T19:48:51.240Z,85.78
2022-08-17T19:51:40.863Z,86.17
2022-08-17T19:54:35.122Z,86.29
2022-08-17T19:57:20.706Z,86.37
2022-08-17T20:00:17.217Z,86.44
2022-08-17T20:02:57.600Z,86.69
2022-08-17T20:06:08.534Z,86.90
2022-08-17T20:09:16.661Z,87.17
2022-08-17T20:11:56.211Z,87.30
2022-08-17T20:14:55.273Z,87.44
2022-08-17T20:17:34.866Z,87.72
2022-08-17T20:20:27.067Z,87.92
2022-08-17T20:23:39.923Z,88.11
2022-08-17T20:26:22.756Z,88.37
2022-08-17T20:29:16.667Z,88.49
2022-08-17T20:31:55.584Z,88.54
2022-08-17T20:34:25.704Z,88.50
2022-08-17T20:37:13.469Z,88.76
2022-08-17T20:40:09.300Z,88.89
2022-08-17T20:42:39.304Z,89.15
2022-08-17T20:45:21.285Z,89.25
2022-08-17T20:48:18.569Z,89.11
2022-08-17T20:50:58.984Z,89.35
2022-08-17T20:53:54.705Z,89.41
2022-08-17T20:56:43.643Z,89.54
2022-08-17T20:59:25.905Z,89.34
2022-08-17T21:02:06.655Z,89.25
2022-08-17T21:04:52.923Z,89.37
2022-08-17T21:07:51.171Z,89.65
2022-08-17T21:10:29.559Z,89.98
2022-08-17T21:13:23.942Z,89.64
2022-08-17T21:16:23.968Z,89.81
2022-08-17T21:19:22.148Z,89.50
2022-08-17T21:22:20.856Z,89.84
2022-08-17T21:25:14.160Z,90.06
2022-08-17T21:28:13.296Z,90.52
2022-08-17T21:30:44.577Z,90.63
2022-08-17T21:33:39.027Z,90.61
2022-08-17T21:36:11.909Z,90.76
2022-08-17T21:38:47.720Z,90.96
2022-08-17T21:41:46.328Z,90.75
2022-08-17T21:44:33.201Z,90.65
2022-08-17T21:47:23.625Z,90.53
2022-08-17T21:49:53.843Z,90.51
2022-08-17T21:52:26.695Z,90.58
2022-08-17T21:54:58.379Z,90.83
2022-08-17T21:57:28.885Z,90.58
2022-08-17T22:00:02.472Z,90.50
2022-08-17T22:02:37.209Z,90.09
2022-08-17T22:05:36.995Z,90.00
2022-08-17T22:08:19.599Z,90.26
2022-08-17T22:10:50.556Z,90.11
2022-08-17T22:13:17.775Z,90.22
2022-08-17T22:16:28.154Z,90.18
2022-08-17T22:18:59.068Z,90.03
2022-08-17T22:21:27.297Z,89.68
2022-08-17T22:24:21.544Z,89.20
2022-08-17T22:27:11.664Z,89.40
2022-08-17T22:30:00.192Z,89.60
2022-08-17T22:32:42.809Z,90.08
2022-08-17T22:35:33.305Z,89.96
2022-08-17T22:38:18.899Z,89.44
2022-08-17T22:40:51.094Z,89.36
2022-08-17T22:43:26.381Z,88.96
2022-08-17T22:45:59.286Z,88.95
2022-08-17T22:48:31.147Z,88.89
2022-08-17T22:51:13.660Z,88.93
2022-08-17T22:54:15.006Z,89.21
2022-08-17T22:57:32.742Z,89.71
2022-08-17T23:00:00.982Z,90.21
2022-08-17T23:02:35.778Z,90.31
2022-08-17T23:05:17.263Z,90.37
2022-08-17T23:07:46.851Z,90.44
2022-08-17T23:10:15.301Z,90.74
2022-08-17T23:12:42.629Z,90.92
2022-08-17T23:15:18.936Z,90.95
2022-08-17T23:17:46.512Z,91.14
2022-08-17T23:20:16.396Z,90.92
2022-08-17T23:22:52.355Z,90.69
2022-08-17T23:25:33.512Z,90.87
2022-08-17T23:28:03.730Z,90.48
2022-08-17T23:30:39.829Z,90.42
2022-08-17T23:33:18.980Z,90.72
2022-08-17T23:35:46.096Z,91.04
2022-08-17T23:38:13.885Z,91.19
2022-08-17T23:40:41.146Z,91.21
2022-08-17T23:43:24.180Z,91.45
2022-08-17T23:45:56.137Z,91.38
2022-08-17T23:48:35.044Z,91.49
2022-08-17T23:51:09.568Z,91.26
2022-08-17T23:53:46.135Z,91.20
2022-08-17T23:56:14.404Z,91.18
2022-08-17T23:58:44.713Z,90.92
